Time;durP1;ratioP1;P1;durP2;ratioP2;P2;SDS_P1;SDS_P2;PMS_P1;PMS_P2;Temp;Humidity;BMP_temperature;BMP_pressure;BME280_temperature;BME280_humidity;BME280_pressure;Samples;Min_cycle;Max_cycle;Signal;HPM_P1;HPM_P2
2023/04/18 00:00:55;;;;;;;5.80;2.00;;;;;;;16.86;46.46;101376.19;5094789;28;20031;-47
2023/04/18 00:03:21;;;;;;;6.47;1.30;;;;;;;16.73;46.22;101361.03;5092014;28;20445;-49
2023/04/18 00:05:47;;;;;;;7.68;1.73;;;;;;;16.77;46.90;101362.22;5100647;28;20067;-49
2023/04/18 00:08:14;;;;;;;5.88;1.88;;;;;;;16.52;47.00;101366.94;5091801;28;20024;-47
2023/04/18 00:10:40;;;;;;;3.28;1.60;;;;;;;16.23;47.77;101363.25;5079211;28;20040;-50
2023/04/18 00:13:07;;;;;;;6.75;1.70;;;;;;;16.24;48.33;101354.09;5108887;28;20027;-49
2023/04/18 00:15:34;;;;;;;4.28;1.60;;;;;;;16.24;48.52;101367.59;5100719;28;20075;-46
2023/04/18 00:18:04;;;;;;;4.07;1.20;;;;;;;16.42;48.36;101366.69;5096266;28;20101;-49
2023/04/18 00:20:31;;;;;;;9.40;2.47;;;;;;;16.48;47.59;101361.19;5094948;28;20468;-48
2023/04/18 00:22:59;;;;;;;6.82;1.63;;;;;;;16.33;48.29;101368.91;5094311;28;20036;-49
2023/04/18 00:25:25;;;;;;;6.60;2.08;;;;;;;16.19;48.05;101360.19;5095695;28;20063;-50
2023/04/18 00:27:52;;;;;;;8.27;1.98;;;;;;;16.13;48.13;101368.38;5095461;28;20392;-47
2023/04/18 00:30:18;;;;;;;7.18;1.55;;;;;;;16.06;48.32;101355.81;5095559;28;20032;-51
2023/04/18 00:32:44;;;;;;;7.13;1.42;;;;;;;16.02;49.46;101360.00;5095669;28;20020;-50
2023/04/18 00:35:10;;;;;;;3.85;1.50;;;;;;;16.07;49.50;101353.91;5096270;28;20069;-47
2023/04/18 00:37:37;;;;;;;7.32;1.83;;;;;;;15.99;49.05;101354.22;5095965;28;20032;-48
2023/04/18 00:40:04;;;;;;;6.30;1.70;;;;;;;16.04;49.70;101352.47;5095450;28;20424;-50
2023/04/18 00:42:30;;;;;;;5.47;1.67;;;;;;;15.93;50.11;101357.84;5095806;28;20020;-50
2023/04/18 00:44:56;;;;;;;5.70;1.85;;;;;;;15.69;51.40;101356.94;5104462;28;20302;-48
2023/04/18 00:47:23;;;;;;;6.15;1.70;;;;;;;15.52;51.82;101352.13;5104268;28;20027;-48
2023/04/18 00:49:49;;;;;;;3.95;1.83;;;;;;;15.58;51.63;101343.13;5082185;28;20047;-47
2023/04/18 00:52:17;;;;;;;5.28;1.60;;;;;;;15.30;52.73;101350.94;5092981;28;20465;-48
2023/04/18 00:54:44;;;;;;;5.78;1.40;;;;;;;15.15;52.77;101353.16;5095543;28;20473;-49
2023/04/18 00:57:11;;;;;;;5.40;1.80;;;;;;;15.13;53.05;101356.09;5095705;28;20372;-49
2023/04/18 00:59:38;;;;;;;7.22;1.83;;;;;;;15.20;53.15;101364.09;5095131;28;20468;-47
2023/04/18 01:02:04;;;;;;;5.28;1.63;;;;;;;15.12;53.01;101367.94;5095799;28;20055;-48
2023/04/18 01:04:31;;;;;;;5.95;1.67;;;;;;;14.99;53.60;101373.44;5092103;28;20448;-48
2023/04/18 01:06:58;;;;;;;6.55;1.60;;;;;;;14.94;53.47;101371.44;5085315;28;20094;-49
2023/04/18 01:09:25;;;;;;;6.88;1.83;;;;;;;14.84;54.02;101365.72;5077059;28;20020;-48
2023/04/18 01:11:51;;;;;;;9.82;1.90;;;;;;;14.63;55.15;101363.41;5093649;28;20036;-48
2023/04/18 01:14:18;;;;;;;5.78;1.88;;;;;;;14.72;55.08;101367.47;5095397;28;20107;-49
2023/04/18 01:16:47;;;;;;;5.57;1.52;;;;;;;14.69;54.76;101357.94;5094808;28;20048;-50
2023/04/18 01:19:16;;;;;;;4.55;1.60;;;;;;;14.62;54.94;101364.47;5105725;28;20476;-49
2023/04/18 01:21:42;;;;;;;7.38;1.88;;;;;;;14.46;55.60;101368.47;5108665;28;20024;-49
2023/04/18 01:24:11;;;;;;;11.25;1.67;;;;;;;14.48;56.24;101364.53;5094557;28;20093;-48
2023/04/18 01:26:37;;;;;;;7.18;2.22;;;;;;;14.11;57.51;101360.84;5094746;28;20606;-50
2023/04/18 01:29:04;;;;;;;7.50;1.92;;;;;;;14.25;57.33;101361.56;5086164;28;20028;-50
2023/04/18 01:31:34;;;;;;;7.82;1.30;;;;;;;14.25;57.08;101369.66;5073978;28;20039;-48
2023/04/18 01:34:01;;;;;;;5.45;1.88;;;;;;;13.96;58.52;101371.06;5074141;28;20025;-50
2023/04/18 01:36:27;;;;;;;5.38;1.38;;;;;;;13.98;58.66;101371.69;5091886;28;20039;-50
2023/04/18 01:38:54;;;;;;;6.70;1.75;;;;;;;13.76;59.65;101373.84;5084896;28;20021;-48
2023/04/18 01:41:20;;;;;;;7.00;2.35;;;;;;;13.69;59.76;101368.50;5077205;28;20031;-49
2023/04/18 01:43:46;;;;;;;4.75;1.75;;;;;;;13.64;60.03;101375.56;5077384;28;20028;-48
2023/04/18 01:46:13;;;;;;;6.95;1.70;;;;;;;13.65;59.99;101374.53;5073995;28;20031;-49
2023/04/18 01:48:39;;;;;;;6.47;1.60;;;;;;;13.68;60.18;101372.25;5074046;28;20056;-49
2023/04/18 01:51:05;;;;;;;5.63;1.60;;;;;;;13.55;60.75;101363.38;5073910;28;20040;-50
2023/04/18 01:53:32;;;;;;;5.88;2.25;;;;;;;13.48;60.90;101366.94;5101922;28;20380;-48
2023/04/18 01:55:58;;;;;;;5.68;1.80;;;;;;;13.48;61.13;101360.72;5110167;28;20016;-50
2023/04/18 01:58:25;;;;;;;6.75;1.88;;;;;;;13.44;61.87;101356.84;5074164;28;20028;-49
2023/04/18 02:00:56;;;;;;;7.70;1.95;;;;;;;13.51;61.82;101352.25;5073655;28;20064;-51
2023/04/18 02:03:23;;;;;;;5.63;2.03;;;;;;;13.50;61.92;101347.91;5073832;28;20024;-49
2023/04/18 02:05:50;;;;;;;5.75;1.77;;;;;;;13.52;61.28;101345.00;5073888;28;20082;-50
2023/04/18 02:08:16;;;;;;;6.00;1.50;;;;;;;13.42;61.86;101350.81;5073568;28;20432;-49
2023/04/18 02:10:43;;;;;;;4.85;1.85;;;;;;;13.40;61.96;101352.91;5104431;28;20038;-46
2023/04/18 02:13:09;;;;;;;5.63;1.60;;;;;;;13.36;62.09;101346.28;5114252;28;20019;-48
2023/04/18 02:15:35;;;;;;;7.03;1.98;;;;;;;13.42;61.94;101357.03;5109772;28;20138;-50
2023/04/18 02:18:02;;;;;;;6.88;1.83;;;;;;;13.31;62.55;101349.59;5093707;28;20044;-49
2023/04/18 02:20:32;;;;;;;5.05;2.03;;;;;;;13.22;63.04;101345.53;5111638;28;20451;-50
2023/04/18 02:22:59;;;;;;;7.70;1.92;;;;;;;13.22;63.23;101348.22;5108263;28;20484;-50
2023/04/18 02:25:27;;;;;;;9.52;2.20;;;;;;;13.30;63.05;101349.84;5073841;28;20047;-47
2023/04/18 02:27:54;;;;;;;5.78;2.00;;;;;;;13.14;63.82;101340.31;5073950;28;20103;-48
2023/04/18 02:30:21;;;;;;;6.82;1.42;;;;;;;13.12;64.27;101342.41;5108116;28;20122;-47
2023/04/18 02:32:55;;;;;;;6.85;1.70;;;;;;;13.22;63.75;101337.47;5113107;28;20034;-46
2023/04/18 02:35:23;;;;;;;6.18;1.40;;;;;;;13.26;63.35;101335.97;5113125;28;20110;-48
2023/04/18 02:37:49;;;;;;;10.93;2.00;;;;;;;13.40;63.11;101326.03;5113744;28;20032;-47
2023/04/18 02:40:15;;;;;;;5.10;1.80;;;;;;;13.23;63.58;101333.72;5111271;27;20039;-48
2023/04/18 02:42:41;;;;;;;7.93;2.22;;;;;;;13.00;64.66;101328.78;5113247;28;20028;-49
2023/04/18 02:45:08;;;;;;;8.70;1.45;;;;;;;12.89;65.07;101341.00;5106454;28;20111;-48
2023/04/18 02:47:35;;;;;;;5.15;1.65;;;;;;;13.00;65.77;101338.72;5113551;28;20039;-49
2023/04/18 02:50:02;;;;;;;6.50;2.13;;;;;;;12.89;66.87;101329.44;5107758;28;20035;-50
2023/04/18 02:52:29;;;;;;;5.68;1.70;;;;;;;13.09;66.51;101337.44;5094473;28;20050;-50
2023/04/18 02:54:56;;;;;;;5.18;1.52;;;;;;;13.10;66.40;101336.41;5092733;28;20438;-50
2023/04/18 02:57:22;;;;;;;3.97;1.92;;;;;;;12.97;66.56;101328.38;5093021;28;20058;-47
2023/04/18 02:59:48;;;;;;;6.13;1.70;;;;;;;12.77;67.51;101331.09;5092687;28;20115;-48
2023/04/18 03:02:14;;;;;;;2.97;1.35;;;;;;;12.82;67.93;101324.06;5093437;28;20425;-47
2023/04/18 03:04:40;;;;;;;6.28;1.80;;;;;;;12.75;68.23;101322.41;5092860;28;20119;-49
2023/04/18 03:07:07;;;;;;;6.63;1.50;;;;;;;12.77;67.68;101325.72;5092990;28;20028;-48
2023/04/18 03:09:34;;;;;;;5.05;1.70;;;;;;;12.76;68.10;101324.88;5092516;28;20074;-48
2023/04/18 03:12:01;;;;;;;4.93;1.92;;;;;;;12.80;67.25;101320.75;5092745;28;20496;-49
2023/04/18 03:14:27;;;;;;;6.03;1.73;;;;;;;12.61;68.23;101316.25;5092585;28;20028;-47
2023/04/18 03:16:53;;;;;;;5.63;1.77;;;;;;;12.55;67.39;101315.22;5092808;28;20040;-49
2023/04/18 03:19:20;;;;;;;9.07;1.92;;;;;;;12.42;67.52;101313.34;5090265;28;20498;-47
2023/04/18 03:21:46;;;;;;;7.35;1.92;;;;;;;12.51;67.42;101321.19;5092552;28;20020;-46
2023/04/18 03:24:13;;;;;;;5.00;2.00;;;;;;;12.35;68.33;101317.06;5092311;28;20020;-49
2023/04/18 03:26:39;;;;;;;3.53;1.60;;;;;;;12.30;68.52;101324.91;5087297;28;20472;-49
2023/04/18 03:29:05;;;;;;;6.32;1.35;;;;;;;12.27;68.68;101325.31;5092316;28;20027;-47
2023/04/18 03:31:32;;;;;;;6.50;1.88;;;;;;;12.28;68.04;101322.44;5091858;28;20110;-47
2023/04/18 03:33:58;;;;;;;5.68;2.05;;;;;;;12.29;67.95;101329.44;5090711;28;20430;-50
2023/04/18 03:36:26;;;;;;;5.35;1.42;;;;;;;12.33;67.85;101333.38;5091165;28;20100;-50
2023/04/18 03:38:52;;;;;;;8.35;1.80;;;;;;;12.28;68.33;101338.53;5081805;28;20028;-48
2023/04/18 03:41:18;;;;;;;4.32;1.45;;;;;;;12.28;68.35;101333.19;5092275;28;20038;-50
2023/04/18 03:43:45;;;;;;;5.72;1.70;;;;;;;12.37;67.77;101328.41;5092295;28;20107;-50
2023/04/18 03:46:11;;;;;;;5.82;1.90;;;;;;;12.25;68.65;101328.19;5092291;28;20103;-48
2023/04/18 03:48:37;;;;;;;11.40;2.55;;;;;;;12.37;68.17;101326.56;5092073;28;20031;-50
2023/04/18 03:51:05;;;;;;;8.52;2.05;;;;;;;12.32;68.09;101323.66;5092955;28;20074;-49
2023/04/18 03:53:31;;;;;;;6.63;1.63;;;;;;;12.37;68.30;101333.78;5092285;28;20085;-51
2023/04/18 03:55:58;;;;;;;6.82;2.00;;;;;;;12.29;68.47;101329.44;5092661;28;20032;-47
2023/04/18 03:58:24;;;;;;;5.93;1.42;;;;;;;12.29;68.34;101332.13;5092084;28;20433;-49
2023/04/18 04:00:51;;;;;;;7.28;1.33;;;;;;;12.23;69.22;101332.97;5092330;28;20365;-51
2023/04/18 04:03:18;;;;;;;6.25;1.75;;;;;;;12.24;68.99;101331.91;5092320;28;20081;-50
2023/04/18 04:05:44;;;;;;;6.57;1.98;;;;;;;12.32;68.50;101333.56;5082021;28;20464;-50
2023/04/18 04:08:11;;;;;;;5.07;1.80;;;;;;;12.32;68.99;101339.75;5094557;28;20050;-51
2023/04/18 04:10:37;;;;;;;7.95;2.40;;;;;;;12.33;68.38;101344.13;5111759;28;20031;-50
2023/04/18 04:13:03;;;;;;;6.40;1.80;;;;;;;12.36;68.61;101341.00;5092006;28;20024;-49
2023/04/18 04:15:29;;;;;;;8.13;1.98;;;;;;;12.26;69.39;101339.75;5091897;28;20162;-50
2023/04/18 04:17:56;;;;;;;5.65;2.08;;;;;;;12.47;68.87;101344.13;5091922;28;20044;-48
2023/04/18 04:20:23;;;;;;;5.22;1.38;;;;;;;12.39;69.21;101354.03;5091661;28;20468;-50
2023/04/18 04:22:54;;;;;;;7.90;2.22;;;;;;;12.34;68.98;101358.38;5091901;28;20062;-50
2023/04/18 04:25:23;;;;;;;9.73;2.45;;;;;;;12.35;69.07;101362.69;5095591;28;20513;-49
2023/04/18 04:27:52;;;;;;;10.57;2.55;;;;;;;12.35;69.72;101371.56;5112348;28;20024;-50
2023/04/18 04:30:19;;;;;;;6.15;2.17;;;;;;;12.39;69.75;101359.41;5111857;28;20030;-48
2023/04/18 04:32:46;;;;;;;4.63;2.10;;;;;;;12.38;69.63;101368.50;5112343;28;20036;-50
2023/04/18 04:35:13;;;;;;;9.60;2.40;;;;;;;12.45;69.30;101365.00;5112501;28;20066;-48
2023/04/18 04:37:42;;;;;;;5.80;2.10;;;;;;;12.57;68.98;101353.41;5112332;28;20023;-49
2023/04/18 04:40:09;;;;;;;6.70;2.22;;;;;;;12.61;68.92;101356.53;5111942;28;20145;-50
2023/04/18 04:42:36;;;;;;;7.13;2.15;;;;;;;12.63;68.95;101354.44;5111664;28;20384;-50
2023/04/18 04:45:03;;;;;;;4.97;1.98;;;;;;;12.58;69.17;101351.56;5090183;28;20490;-50
2023/04/18 04:47:29;;;;;;;4.72;2.30;;;;;;;12.57;69.64;101358.78;5080564;28;20028;-51
2023/04/18 04:49:55;;;;;;;8.15;2.15;;;;;;;12.36;71.48;101362.50;5086748;28;20028;-49
2023/04/18 04:52:21;;;;;;;5.35;2.40;;;;;;;12.47;72.45;101360.22;5080801;28;20035;-48
2023/04/18 04:54:48;;;;;;;6.85;2.58;;;;;;;12.48;71.77;101365.38;5091516;28;20020;-49
2023/04/18 04:57:15;;;;;;;7.90;2.58;;;;;;;12.50;72.07;101362.53;5090522;28;20032;-49
2023/04/18 04:59:41;;;;;;;6.45;2.33;;;;;;;12.56;71.52;101372.44;5094389;28;20024;-47
2023/04/18 05:02:07;;;;;;;4.93;2.70;;;;;;;12.58;71.71;101386.47;5090790;28;20054;-46
2023/04/18 05:04:34;;;;;;;8.27;2.63;;;;;;;12.56;71.86;101380.50;5092312;28;20476;-47
2023/04/18 05:07:00;;;;;;;6.45;2.70;;;;;;;12.48;71.72;101380.66;5095278;28;20031;-48
2023/04/18 05:09:26;;;;;;;8.85;2.40;;;;;;;12.35;72.33;101378.81;5095049;28;20082;-49
2023/04/18 05:11:52;;;;;;;7.03;3.30;;;;;;;12.39;71.84;101380.88;5095434;28;20442;-49
2023/04/18 05:14:19;;;;;;;9.98;2.83;;;;;;;12.46;72.17;101382.75;5095259;28;20020;-48
2023/04/18 05:16:46;;;;;;;6.32;2.08;;;;;;;12.51;72.04;101374.91;5102107;28;20058;-47
2023/04/18 05:19:12;;;;;;;8.50;2.45;;;;;;;12.32;71.65;101380.03;5115288;27;20035;-50
2023/04/18 05:21:38;;;;;;;7.13;2.45;;;;;;;12.44;71.19;101380.28;5115427;27;20491;-49
2023/04/18 05:24:05;;;;;;;9.25;2.70;;;;;;;12.37;71.78;101382.09;5115280;28;20102;-47
2023/04/18 05:26:31;;;;;;;9.65;2.97;;;;;;;12.26;72.20;101394.25;5115265;28;20030;-50
2023/04/18 05:28:57;;;;;;;8.27;3.00;;;;;;;12.39;71.21;101383.56;5115076;28;20047;-48
2023/04/18 05:31:23;;;;;;;7.82;2.78;;;;;;;12.36;71.46;101383.13;5115103;28;20379;-48
2023/04/18 05:33:50;;;;;;;6.80;2.90;;;;;;;12.35;71.55;101379.63;5107132;28;20032;-46
2023/04/18 05:36:16;;;;;;;8.98;2.55;;;;;;;12.31;72.05;101378.38;5094524;28;20032;-48
2023/04/18 05:38:42;;;;;;;6.13;2.88;;;;;;;12.35;71.76;101379.63;5089438;28;20020;-49
2023/04/18 05:41:08;;;;;;;11.65;2.60;;;;;;;12.37;71.54;101368.69;5074166;28;20108;-49
2023/04/18 05:43:34;;;;;;;8.65;2.33;;;;;;;12.27;71.80;101362.88;5074339;28;20029;-50
2023/04/18 05:46:01;;;;;;;7.95;3.05;;;;;;;12.36;71.91;101373.22;5074183;28;20020;-50
2023/04/18 05:48:27;;;;;;;7.85;2.90;;;;;;;12.25;72.56;101365.78;5074321;28;20415;-51
2023/04/18 05:50:53;;;;;;;10.18;3.05;;;;;;;12.27;72.55;101362.88;5091311;28;20027;-51
2023/04/18 05:53:19;;;;;;;8.10;2.72;;;;;;;12.34;72.17;101367.25;5096657;28;20024;-46
2023/04/18 05:55:47;;;;;;;7.53;2.85;;;;;;;12.40;72.79;101387.91;5094235;28;20460;-49
2023/04/18 05:58:14;;;;;;;8.68;2.97;;;;;;;12.47;72.47;101379.03;5094001;28;20567;-46
2023/04/18 06:00:41;;;;;;;9.98;2.97;;;;;;;12.52;72.78;101372.00;5094141;28;20028;-49
2023/04/18 06:03:07;;;;;;;4.80;2.60;;;;;;;12.40;73.99;101381.72;5093953;28;20410;-48
2023/04/18 06:05:34;;;;;;;5.45;2.88;;;;;;;12.33;76.08;101386.25;5093694;28;20358;-45
2023/04/18 06:08:00;;;;;;;11.68;2.92;;;;;;;12.42;76.95;101393.88;5091384;28;20476;-49
2023/04/18 06:10:26;;;;;;;10.63;2.83;;;;;;;12.40;77.81;101390.59;5086854;28;20545;-50
2023/04/18 06:12:52;;;;;;;7.60;2.45;;;;;;;12.24;78.53;101382.91;5086765;28;20044;-46
2023/04/18 06:15:19;;;;;;;6.05;2.10;;;;;;;12.13;78.90;101388.88;5093872;28;20403;-49
2023/04/18 06:17:45;;;;;;;5.63;1.95;;;;;;;12.26;78.17;101383.53;5091752;28;20512;-48
2023/04/18 06:20:11;;;;;;;4.40;1.67;;;;;;;12.22;78.48;101374.25;5093869;28;20527;-48
2023/04/18 06:22:38;;;;;;;7.93;2.00;;;;;;;12.13;79.78;101389.69;5093810;28;20102;-47
2023/04/18 06:25:04;;;;;;;7.38;2.30;;;;;;;12.12;80.45;101388.06;5087618;28;20074;-48
2023/04/18 06:27:31;;;;;;;6.40;1.33;;;;;;;12.01;79.42;101387.81;5091589;28;20091;-52
2023/04/18 06:29:57;;;;;;;4.72;1.15;;;;;;;11.85;79.85;101392.50;5091094;28;20547;-50
2023/04/18 06:32:23;;;;;;;3.35;1.00;;;;;;;11.89;80.16;101383.03;5093764;28;20024;-50
2023/04/18 06:34:50;;;;;;;1.60;0.75;;;;;;;11.91;77.81;101382.00;5093574;28;20069;-49
2023/04/18 06:37:16;;;;;;;2.22;0.80;;;;;;;11.98;77.43;101388.22;5093511;28;20115;-47
2023/04/18 06:39:42;;;;;;;3.33;0.63;;;;;;;11.92;76.43;101386.34;5082264;28;20085;-44
2023/04/18 06:42:09;;;;;;;1.95;0.70;;;;;;;11.90;74.87;101383.88;5090731;28;20496;-47
2023/04/18 06:44:35;;;;;;;1.27;0.57;;;;;;;11.75;76.34;101367.88;5090290;28;20016;-46
2023/04/18 06:47:02;;;;;;;1.60;0.50;;;;;;;11.85;76.58;101363.00;5093158;28;20020;-43
2023/04/18 06:49:28;;;;;;;0.75;0.43;;;;;;;11.86;74.55;101359.28;5092872;28;20039;-45
2023/04/18 06:51:54;;;;;;;0.43;0.40;;;;;;;11.78;76.17;101364.00;5093267;28;20020;-44
2023/04/18 06:54:20;;;;;;;0.63;0.47;;;;;;;11.87;76.00;101366.31;5093514;28;20024;-45
2023/04/18 06:56:47;;;;;;;1.15;0.40;;;;;;;12.04;76.03;101371.31;5090136;28;20025;-45
2023/04/18 06:59:13;;;;;;;1.13;0.50;;;;;;;11.98;75.38;101378.31;5103830;28;20065;-47
2023/04/18 07:01:40;;;;;;;2.20;0.63;;;;;;;12.02;75.09;101389.47;5113625;28;20027;-46
2023/04/18 07:04:07;;;;;;;0.75;0.40;;;;;;;12.09;75.38;101387.63;5113734;28;20114;-48
2023/04/18 07:06:35;;;;;;;1.63;0.43;;;;;;;12.07;74.23;101390.53;5113213;28;20113;-45
2023/04/18 07:09:01;;;;;;;0.82;0.52;;;;;;;12.20;73.50;101400.44;5108208;28;20028;-45
2023/04/18 07:11:28;;;;;;;0.75;0.50;;;;;;;12.07;71.37;101390.53;5092595;28;20054;-49
2023/04/18 07:13:54;;;;;;;1.15;0.57;;;;;;;11.94;72.77;101401.22;5091289;28;20035;-44
2023/04/18 07:16:20;;;;;;;1.65;0.43;;;;;;;11.76;72.17;101408.94;5092626;28;20432;-45
2023/04/18 07:18:46;;;;;;;4.22;0.60;;;;;;;11.76;72.13;101416.97;5100250;28;20030;-47
2023/04/18 07:21:13;;;;;;;0.50;0.40;;;;;;;11.76;70.78;101419.66;5107961;28;20031;-46
2023/04/18 07:23:39;;;;;;;1.75;0.45;;;;;;;11.66;68.41;101417.38;5092415;28;20039;-46
2023/04/18 07:26:08;;;;;;;1.27;0.50;;;;;;;11.56;69.20;101427.63;5090698;28;20047;-49
2023/04/18 07:28:34;;;;;;;1.17;0.68;;;;;;;11.42;71.13;101429.38;5092351;28;20032;-44
2023/04/18 07:31:02;;;;;;;0.65;0.50;;;;;;;10.99;74.42;101423.31;5092257;28;20023;-49
2023/04/18 07:33:32;;;;;;;1.88;0.60;;;;;;;10.93;74.88;101435.63;5095812;28;20421;-48
2023/04/18 07:36:00;;;;;;;1.90;0.57;;;;;;;10.95;73.26;101438.13;5072105;28;20370;-47
2023/04/18 07:38:26;;;;;;;1.75;0.60;;;;;;;10.87;71.28;101432.91;5072076;28;20511;-49
2023/04/18 07:41:00;;;;;;;1.35;0.80;;;;;;;10.73;71.32;101431.97;5072104;28;20090;-46
2023/04/18 07:43:26;;;;;;;6.80;1.33;;;;;;;10.50;70.25;101434.84;5082758;28;20515;-48
2023/04/18 07:45:53;;;;;;;1.83;1.10;;;;;;;10.43;72.24;101453.50;5092216;28;20028;-45
2023/04/18 07:48:24;;;;;;;1.55;1.02;;;;;;;10.28;72.07;101458.91;5091983;28;20423;-48
2023/04/18 07:50:50;;;;;;;3.22;1.13;;;;;;;10.22;72.20;101464.16;5092506;28;20032;-44
2023/04/18 07:53:17;;;;;;;3.33;1.45;;;;;;;10.11;73.38;101460.13;5092136;28;20036;-48
2023/04/18 07:55:43;;;;;;;3.08;0.93;;;;;;;9.97;71.86;101460.97;5092363;28;20039;-48
2023/04/18 07:58:10;;;;;;;2.92;1.00;;;;;;;9.96;71.50;101468.16;5091737;28;20491;-45
2023/04/18 08:00:41;;;;;;;2.58;1.05;;;;;;;10.00;69.99;101469.47;5092106;28;20484;-48
2023/04/18 08:03:11;;;;;;;2.53;0.70;;;;;;;10.00;70.95;101476.66;5092232;28;20028;-44
2023/04/18 08:05:41;;;;;;;2.65;0.77;;;;;;;9.94;72.02;101474.72;5092033;28;20036;-44
2023/04/18 08:08:09;;;;;;;1.92;0.90;;;;;;;10.00;71.21;101471.31;5110423;28;20032;-46
2023/04/18 08:10:36;;;;;;;2.30;0.77;;;;;;;10.05;71.08;101480.44;5112432;28;20073;-47
2023/04/18 08:13:02;;;;;;;2.20;0.80;;;;;;;9.96;71.67;101486.06;5112331;28;20023;-45
2023/04/18 08:15:31;;;;;;;1.05;0.88;;;;;;;10.18;70.59;101486.94;5112399;28;20479;-47
2023/04/18 08:17:58;;;;;;;3.53;1.02;;;;;;;10.08;71.38;101481.06;5111994;28;20047;-45
2023/04/18 08:20:24;;;;;;;3.95;0.77;;;;;;;9.94;70.95;101488.09;5097761;28;20028;-44
2023/04/18 08:22:50;;;;;;;2.75;0.65;;;;;;;10.06;70.79;101475.91;5091918;28;20048;-47
2023/04/18 08:25:17;;;;;;;2.67;0.98;;;;;;;9.94;71.26;101488.94;5100002;28;20036;-45
2023/04/18 08:27:43;;;;;;;2.05;0.98;;;;;;;9.96;70.53;101489.56;5102466;28;20107;-47
2023/04/18 08:30:10;;;;;;;3.08;0.95;;;;;;;9.90;71.28;101492.16;5090087;28;20481;-44
2023/04/18 08:32:36;;;;;;;2.90;1.02;;;;;;;9.76;72.24;101486.59;5103563;28;20047;-46
2023/04/18 08:35:03;;;;;;;3.75;1.10;;;;;;;9.77;72.09;101482.94;5093659;28;20032;-48
2023/04/18 08:37:30;;;;;;;7.65;1.67;;;;;;;9.87;71.32;101487.16;5108791;28;20085;-47
2023/04/18 08:39:56;;;;;;;2.97;1.10;;;;;;;9.80;71.77;101489.75;5095624;28;20060;-46
2023/04/18 08:42:23;;;;;;;2.75;1.10;;;;;;;9.85;71.66;101486.53;5095559;28;20081;-45
2023/04/18 08:44:50;;;;;;;5.00;1.02;;;;;;;9.75;72.19;101476.94;5095641;28;20024;-48
2023/04/18 08:47:18;;;;;;;2.33;1.10;;;;;;;9.87;72.51;101487.16;5095747;28;20028;-44
2023/04/18 08:49:45;;;;;;;3.72;1.25;;;;;;;9.89;72.20;101493.19;5095301;28;20034;-47
2023/04/18 08:52:18;;;;;;;5.00;1.30;;;;;;;9.89;71.61;101485.16;5095467;28;20020;-49
2023/04/18 08:54:46;;;;;;;4.50;1.48;;;;;;;9.89;72.06;101483.31;5095739;28;20480;-45
2023/04/18 08:57:22;;;;;;;4.40;1.33;;;;;;;9.91;72.41;101486.63;5097794;28;20119;-48
2023/04/18 08:59:49;;;;;;;1.83;1.10;;;;;;;10.02;71.32;101496.00;5115800;27;20387;-45
2023/04/18 09:02:15;;;;;;;3.45;1.20;;;;;;;9.85;73.03;101478.50;5115633;27;20388;-48
2023/04/18 09:04:47;;;;;;;6.05;1.40;;;;;;;10.03;71.46;101471.75;5115780;28;20016;-44
2023/04/18 09:07:16;;;;;;;3.45;1.30;;;;;;;10.03;71.51;101469.06;5116033;28;20024;-44
2023/04/18 09:09:48;;;;;;;4.47;1.50;;;;;;;10.09;71.33;101464.81;5115312;28;20027;-45
2023/04/18 09:12:25;;;;;;;4.53;1.40;;;;;;;10.04;71.58;101469.91;5115506;28;20383;-48
2023/04/18 09:15:08;;;;;;;6.15;1.35;;;;;;;10.19;71.13;101470.72;5107082;28;20031;-48
2023/04/18 09:17:48;;;;;;;3.00;1.10;;;;;;;10.26;70.67;101471.63;5094760;28;20044;-49
2023/04/18 09:20:25;;;;;;;3.38;1.10;;;;;;;10.19;70.33;101469.88;5095132;28;20472;-45
2023/04/18 09:22:56;;;;;;;4.20;1.27;;;;;;;10.17;69.75;101471.94;5094919;28;20392;-48
2023/04/18 09:25:34;;;;;;;3.72;1.40;;;;;;;10.15;69.61;101471.25;5094947;28;20032;-48
2023/04/18 09:28:20;;;;;;;3.10;1.25;;;;;;;10.07;69.88;101469.53;5094555;28;20058;-48
2023/04/18 09:30:46;;;;;;;2.45;1.10;;;;;;;10.20;69.89;101479.56;5094886;28;20024;-48
2023/04/18 09:33:13;;;;;;;4.63;1.73;;;;;;;10.02;70.17;101478.13;5092411;28;20128;-48
2023/04/18 09:35:39;;;;;;;4.40;1.42;;;;;;;10.01;69.98;101473.78;5074441;28;20445;-44
2023/04/18 09:38:07;;;;;;;5.57;1.40;;;;;;;9.91;70.67;101477.75;5074095;28;20089;-45
2023/04/18 09:40:33;;;;;;;3.75;1.30;;;;;;;9.94;70.34;101480.09;5074255;28;20034;-47
2023/04/18 09:43:00;;;;;;;3.38;1.40;;;;;;;9.97;70.37;101466.31;5074311;28;20035;-45
2023/04/18 09:45:26;;;;;;;7.15;2.15;;;;;;;9.97;70.89;101472.50;5092241;28;20047;-48
2023/04/18 09:47:54;;;;;;;2.58;1.10;;;;;;;9.87;71.18;101468.44;5092799;28;20038;-48
2023/04/18 09:50:20;;;;;;;4.18;1.58;;;;;;;9.91;71.88;101469.75;5107727;28;20367;-49
2023/04/18 09:52:47;;;;;;;3.10;1.20;;;;;;;9.79;71.58;101470.22;5099769;28;20038;-49
2023/04/18 09:55:17;;;;;;;4.63;1.60;;;;;;;9.76;71.49;101467.06;5098324;28;20027;-44
2023/04/18 09:57:48;;;;;;;4.60;1.77;;;;;;;9.68;71.91;101469.84;5092832;28;20107;-47
2023/04/18 10:00:26;;;;;;;6.15;1.70;;;;;;;9.64;72.18;101469.38;5094323;28;20102;-48
2023/04/18 10:02:57;;;;;;;4.85;1.50;;;;;;;9.68;72.13;101462.66;5094186;28;20078;-48
2023/04/18 10:05:31;;;;;;;3.83;1.40;;;;;;;9.59;72.13;101457.59;5098174;28;20399;-47
2023/04/18 10:07:57;;;;;;;4.93;1.30;;;;;;;9.75;72.15;101452.88;5114281;28;20120;-48
2023/04/18 10:10:24;;;;;;;3.65;1.40;;;;;;;9.91;71.74;101451.03;5114262;28;20059;-46
2023/04/18 10:12:54;;;;;;;4.65;2.00;;;;;;;9.83;71.75;101446.63;5114356;28;20024;-48
2023/04/18 10:15:22;;;;;;;3.13;1.10;;;;;;;9.70;71.83;101454.44;5100195;28;20480;-48
2023/04/18 10:17:57;;;;;;;3.38;1.45;;;;;;;9.71;71.75;101453.44;5093507;28;20064;-47
2023/04/18 10:20:26;;;;;;;8.15;1.80;;;;;;;9.45;72.51;101445.88;5094047;28;20032;-48
2023/04/18 10:22:54;;;;;;;5.05;1.80;;;;;;;9.75;71.98;101454.72;5101743;28;20054;-48
2023/04/18 10:25:38;;;;;;;3.33;1.27;;;;;;;9.59;72.28;101453.06;5113991;28;20031;-47
2023/04/18 10:28:07;;;;;;;3.03;1.35;;;;;;;9.48;72.28;101450.84;5114065;28;20031;-48
2023/04/18 10:30:55;;;;;;;5.70;1.60;;;;;;;9.52;71.94;101457.50;5113784;28;20043;-49
2023/04/18 10:33:37;;;;;;;4.88;1.58;;;;;;;9.52;72.24;101452.97;5106493;28;20377;-47
2023/04/18 10:36:12;;;;;;;4.18;1.42;;;;;;;9.47;71.93;101449.19;5073615;28;20024;-48
2023/04/18 10:38:44;;;;;;;4.25;1.45;;;;;;;9.36;72.06;101455.81;5072975;28;20331;-48
2023/04/18 10:41:21;;;;;;;3.70;1.38;;;;;;;9.28;72.33;101455.09;5112042;28;20085;-48
2023/04/18 10:44:09;;;;;;;5.43;1.80;;;;;;;9.36;71.97;101457.66;5113633;28;20034;-47
2023/04/18 10:46:52;;;;;;;7.13;1.90;;;;;;;9.26;72.37;101453.41;5107532;27;20557;-45
2023/04/18 10:49:26;;;;;;;7.47;1.52;;;;;;;9.20;72.20;101464.81;5086474;28;20455;-45
2023/04/18 10:51:57;;;;;;;5.47;1.67;;;;;;;9.15;72.46;101461.88;5093266;28;20077;-45
2023/04/18 10:55:11;;;;;;;4.07;1.42;;;;;;;9.08;72.52;101466.28;5091242;28;20027;-46
2023/04/18 10:57:49;;;;;;;4.10;1.77;;;;;;;9.06;72.28;101470.97;5042434;28;20055;-44
2023/04/18 11:00:19;;;;;;;5.35;1.60;;;;;;;8.93;72.92;101471.56;5036535;28;20036;-47
2023/04/18 11:03:04;;;;;;;2.92;1.42;;;;;;;8.80;73.02;101489.22;5083382;28;20488;-48
2023/04/18 11:05:30;;;;;;;2.10;1.50;;;;;;;8.77;73.19;101484.22;5084527;28;20570;-45
2023/04/18 11:07:56;;;;;;;6.05;2.22;;;;;;;8.66;73.84;101483.66;5092658;28;20508;-46
2023/04/18 11:10:25;;;;;;;5.63;2.00;;;;;;;8.59;74.97;101489.84;5092708;28;20119;-45
2023/04/18 11:12:52;;;;;;;3.90;1.75;;;;;;;8.48;74.87;101496.41;5092814;28;20016;-47
2023/04/18 11:15:21;;;;;;;5.13;2.00;;;;;;;8.21;76.45;101498.53;5092799;28;20035;-45
2023/04/18 11:18:02;;;;;;;2.95;1.83;;;;;;;8.12;76.95;101494.25;5083663;28;20407;-44
2023/04/18 11:20:36;;;;;;;5.07;1.92;;;;;;;8.35;75.43;101501.47;5092517;28;20491;-45
2023/04/18 11:23:03;;;;;;;4.95;2.22;;;;;;;8.38;75.45;101498.47;5092946;28;20036;-45
2023/04/18 11:25:35;;;;;;;5.80;1.85;;;;;;;8.39;75.25;101500.16;5092094;28;20484;-45
2023/04/18 11:28:03;;;;;;;5.18;1.98;;;;;;;8.27;75.76;101509.50;5092148;28;20016;-46
2023/04/18 11:30:42;;;;;;;2.90;1.80;;;;;;;8.26;75.88;101513.19;5097210;28;20031;-45